sensor_id;sensor_type;location;lat;lon;timestamp;P1;durP1;ratioP1;P2;durP2;ratioP2
43519;SDS011;46848;51.980;5.918;2023-02-28T00:00:31;3.37;;;1.83;;
43519;SDS011;46848;51.980;5.918;2023-02-28T00:02:57;6.13;;;2.50;;
43519;SDS011;46848;51.980;5.918;2023-02-28T00:05:24;7.57;;;2.00;;
43519;SDS011;46848;51.980;5.918;2023-02-28T00:07:51;4.53;;;2.07;;
43519;SDS011;46848;51.980;5.918;2023-02-28T00:10:21;4.27;;;2.10;;
43519;SDS011;46848;51.980;5.918;2023-02-28T00:12:49;4.00;;;1.83;;
43519;SDS011;46848;51.980;5.918;2023-02-28T00:15:15;6.50;;;2.37;;
43519;SDS011;46848;51.980;5.918;2023-02-28T00:17:41;6.63;;;2.37;;
43519;SDS011;46848;51.980;5.918;2023-02-28T00:20:07;5.67;;;2.07;;
43519;SDS011;46848;51.980;5.918;2023-02-28T00:22:35;5.23;;;1.93;;
43519;SDS011;46848;51.980;5.918;2023-02-28T00:25:01;6.10;;;2.10;;
43519;SDS011;46848;51.980;5.918;2023-02-28T00:27:29;7.87;;;2.40;;
43519;SDS011;46848;51.980;5.918;2023-02-28T00:29:55;6.90;;;2.13;;
43519;SDS011;46848;51.980;5.918;2023-02-28T00:32:21;5.70;;;2.57;;
43519;SDS011;46848;51.980;5.918;2023-02-28T00:34:46;4.97;;;2.20;;
43519;SDS011;46848;51.980;5.918;2023-02-28T00:37:12;7.13;;;3.53;;
43519;SDS011;46848;51.980;5.918;2023-02-28T00:39:38;6.50;;;2.80;;
43519;SDS011;46848;51.980;5.918;2023-02-28T00:42:05;7.60;;;2.40;;
43519;SDS011;46848;51.980;5.918;2023-02-28T00:44:32;5.17;;;2.63;;
43519;SDS011;46848;51.980;5.918;2023-02-28T00:46:58;5.03;;;2.27;;
43519;SDS011;46848;51.980;5.918;2023-02-28T00:49:27;4.50;;;2.30;;
43519;SDS011;46848;51.980;5.918;2023-02-28T00:51:54;6.73;;;2.30;;
43519;SDS011;46848;51.980;5.918;2023-02-28T00:54:20;6.00;;;2.17;;
43519;SDS011;46848;51.980;5.918;2023-02-28T00:56:47;7.40;;;2.57;;
43519;SDS011;46848;51.980;5.918;2023-02-28T00:59:13;7.07;;;2.73;;
43519;SDS011;46848;51.980;5.918;2023-02-28T01:01:40;4.07;;;1.90;;
43519;SDS011;46848;51.980;5.918;2023-02-28T01:04:06;5.57;;;2.40;;
43519;SDS011;46848;51.980;5.918;2023-02-28T01:06:32;4.00;;;1.93;;
43519;SDS011;46848;51.980;5.918;2023-02-28T01:08:58;4.10;;;1.90;;
43519;SDS011;46848;51.980;5.918;2023-02-28T01:11:24;4.67;;;2.27;;
43519;SDS011;46848;51.980;5.918;2023-02-28T01:13:49;5.33;;;1.90;;
43519;SDS011;46848;51.980;5.918;2023-02-28T01:16:15;5.27;;;2.20;;
43519;SDS011;46848;51.980;5.918;2023-02-28T01:18:41;6.00;;;2.47;;
43519;SDS011;46848;51.980;5.918;2023-02-28T01:21:08;5.40;;;2.97;;
43519;SDS011;46848;51.980;5.918;2023-02-28T01:23:37;4.90;;;2.13;;
43519;SDS011;46848;51.980;5.918;2023-02-28T01:26:04;6.27;;;2.60;;
43519;SDS011;46848;51.980;5.918;2023-02-28T01:28:33;3.17;;;1.90;;
43519;SDS011;46848;51.980;5.918;2023-02-28T01:30:59;5.27;;;2.07;;
43519;SDS011;46848;51.980;5.918;2023-02-28T01:33:25;6.47;;;2.13;;
43519;SDS011;46848;51.980;5.918;2023-02-28T01:35:57;3.83;;;1.93;;
43519;SDS011;46848;51.980;5.918;2023-02-28T01:38:34;5.07;;;2.53;;
43519;SDS011;46848;51.980;5.918;2023-02-28T01:41:00;5.20;;;2.43;;
43519;SDS011;46848;51.980;5.918;2023-02-28T01:46:12;5.43;;;2.40;;
43519;SDS011;46848;51.980;5.918;2023-02-28T01:48:42;3.63;;;1.93;;
43519;SDS011;46848;51.980;5.918;2023-02-28T01:51:13;4.60;;;2.43;;
43519;SDS011;46848;51.980;5.918;2023-02-28T01:53:46;6.90;;;2.45;;
43519;SDS011;46848;51.980;5.918;2023-02-28T01:56:17;5.85;;;2.60;;
43519;SDS011;46848;51.980;5.918;2023-02-28T01:58:48;5.63;;;2.53;;
43519;SDS011;46848;51.980;5.918;2023-02-28T02:01:15;7.03;;;2.40;;
43519;SDS011;46848;51.980;5.918;2023-02-28T02:03:47;7.50;;;2.13;;
43519;SDS011;46848;51.980;5.918;2023-02-28T02:06:20;4.67;;;2.30;;
43519;SDS011;46848;51.980;5.918;2023-02-28T02:08:50;6.50;;;2.63;;
43519;SDS011;46848;51.980;5.918;2023-02-28T02:11:17;5.77;;;2.60;;
43519;SDS011;46848;51.980;5.918;2023-02-28T02:13:55;6.50;;;2.50;;
43519;SDS011;46848;51.980;5.918;2023-02-28T02:16:56;4.20;;;2.10;;
43519;SDS011;46848;51.980;5.918;2023-02-28T02:27:56;5.90;;;2.73;;
43519;SDS011;46848;51.980;5.918;2023-02-28T02:41:24;4.53;;;2.37;;
43519;SDS011;46848;51.980;5.918;2023-02-28T02:43:53;5.13;;;2.53;;
43519;SDS011;46848;51.980;5.918;2023-02-28T02:46:32;5.30;;;2.83;;
43519;SDS011;46848;51.980;5.918;2023-02-28T02:49:21;6.13;;;2.37;;
43519;SDS011;46848;51.980;5.918;2023-02-28T02:51:50;5.07;;;2.70;;
43519;SDS011;46848;51.980;5.918;2023-02-28T02:54:22;6.37;;;2.80;;
43519;SDS011;46848;51.980;5.918;2023-02-28T02:56:57;5.63;;;2.67;;
43519;SDS011;46848;51.980;5.918;2023-02-28T02:59:26;5.37;;;2.40;;
43519;SDS011;46848;51.980;5.918;2023-02-28T03:01:57;6.03;;;2.63;;
43519;SDS011;46848;51.980;5.918;2023-02-28T03:04:31;7.07;;;2.50;;
43519;SDS011;46848;51.980;5.918;2023-02-28T03:07:01;4.65;;;2.53;;
43519;SDS011;46848;51.980;5.918;2023-02-28T03:09:26;9.60;;;3.10;;
43519;SDS011;46848;51.980;5.918;2023-02-28T03:11:53;4.70;;;2.60;;
43519;SDS011;46848;51.980;5.918;2023-02-28T03:16:52;8.40;;;3.37;;
43519;SDS011;46848;51.980;5.918;2023-02-28T03:27:18;7.00;;;2.93;;
43519;SDS011;46848;51.980;5.918;2023-02-28T03:30:16;5.97;;;2.80;;
43519;SDS011;46848;51.980;5.918;2023-02-28T03:32:47;5.73;;;2.80;;
43519;SDS011;46848;51.980;5.918;2023-02-28T03:35:23;6.40;;;3.00;;
43519;SDS011;46848;51.980;5.918;2023-02-28T03:37:55;5.60;;;2.67;;
43519;SDS011;46848;51.980;5.918;2023-02-28T03:40:29;5.40;;;2.70;;
43519;SDS011;46848;51.980;5.918;2023-02-28T03:42:59;5.07;;;2.40;;
43519;SDS011;46848;51.980;5.918;2023-02-28T03:45:33;6.57;;;2.50;;
43519;SDS011;46848;51.980;5.918;2023-02-28T03:48:03;5.07;;;2.37;;
43519;SDS011;46848;51.980;5.918;2023-02-28T03:50:43;6.33;;;3.23;;
43519;SDS011;46848;51.980;5.918;2023-02-28T03:53:25;4.53;;;2.30;;
43519;SDS011;46848;51.980;5.918;2023-02-28T03:56:11;4.67;;;2.20;;
43519;SDS011;46848;51.980;5.918;2023-02-28T03:59:04;5.77;;;2.60;;
43519;SDS011;46848;51.980;5.918;2023-02-28T04:01:39;5.13;;;2.37;;
43519;SDS011;46848;51.980;5.918;2023-02-28T04:04:10;5.90;;;2.37;;
43519;SDS011;46848;51.980;5.918;2023-02-28T04:06:37;6.40;;;2.50;;
43519;SDS011;46848;51.980;5.918;2023-02-28T04:09:04;4.23;;;2.00;;
43519;SDS011;46848;51.980;5.918;2023-02-28T04:13:59;5.10;;;2.27;;
43519;SDS011;46848;51.980;5.918;2023-02-28T04:16:26;4.67;;;2.20;;
43519;SDS011;46848;51.980;5.918;2023-02-28T04:18:51;3.47;;;1.77;;
43519;SDS011;46848;51.980;5.918;2023-02-28T04:21:17;3.60;;;2.03;;
43519;SDS011;46848;51.980;5.918;2023-02-28T04:23:45;5.23;;;2.40;;
43519;SDS011;46848;51.980;5.918;2023-02-28T04:26:11;7.17;;;1.87;;
43519;SDS011;46848;51.980;5.918;2023-02-28T04:28:37;3.70;;;2.03;;
43519;SDS011;46848;51.980;5.918;2023-02-28T04:31:04;4.27;;;1.60;;
43519;SDS011;46848;51.980;5.918;2023-02-28T04:33:30;3.30;;;1.83;;
43519;SDS011;46848;51.980;5.918;2023-02-28T04:36:01;4.30;;;1.40;;
43519;SDS011;46848;51.980;5.918;2023-02-28T04:38:32;2.83;;;1.20;;
43519;SDS011;46848;51.980;5.918;2023-02-28T04:40:59;3.47;;;1.43;;
43519;SDS011;46848;51.980;5.918;2023-02-28T04:43:25;2.40;;;1.30;;
43519;SDS011;46848;51.980;5.918;2023-02-28T04:45:52;5.00;;;2.00;;
43519;SDS011;46848;51.980;5.918;2023-02-28T04:48:21;3.70;;;1.57;;
43519;SDS011;46848;51.980;5.918;2023-02-28T04:50:52;2.40;;;1.23;;
43519;SDS011;46848;51.980;5.918;2023-02-28T04:53:18;4.80;;;1.50;;
43519;SDS011;46848;51.980;5.918;2023-02-28T04:55:44;3.20;;;1.27;;
43519;SDS011;46848;51.980;5.918;2023-02-28T04:58:10;3.27;;;1.40;;
43519;SDS011;46848;51.980;5.918;2023-02-28T05:00:36;2.23;;;1.07;;
43519;SDS011;46848;51.980;5.918;2023-02-28T05:03:01;4.33;;;1.70;;
43519;SDS011;46848;51.980;5.918;2023-02-28T05:05:27;2.50;;;1.10;;
43519;SDS011;46848;51.980;5.918;2023-02-28T05:07:53;1.87;;;1.17;;
43519;SDS011;46848;51.980;5.918;2023-02-28T05:10:20;2.37;;;1.23;;
43519;SDS011;46848;51.980;5.918;2023-02-28T05:12:46;3.43;;;1.10;;
43519;SDS011;46848;51.980;5.918;2023-02-28T05:15:13;4.20;;;1.80;;
43519;SDS011;46848;51.980;5.918;2023-02-28T05:17:40;3.27;;;1.30;;
43519;SDS011;46848;51.980;5.918;2023-02-28T05:20:06;4.03;;;1.10;;
43519;SDS011;46848;51.980;5.918;2023-02-28T05:22:35;3.63;;;0.87;;
43519;SDS011;46848;51.980;5.918;2023-02-28T05:25:02;2.27;;;1.10;;
43519;SDS011;46848;51.980;5.918;2023-02-28T05:27:28;3.33;;;0.90;;
43519;SDS011;46848;51.980;5.918;2023-02-28T05:29:54;3.43;;;1.30;;
43519;SDS011;46848;51.980;5.918;2023-02-28T05:32:19;3.27;;;1.20;;
43519;SDS011;46848;51.980;5.918;2023-02-28T05:34:45;2.57;;;1.17;;
43519;SDS011;46848;51.980;5.918;2023-02-28T05:37:11;4.93;;;1.33;;
43519;SDS011;46848;51.980;5.918;2023-02-28T05:39:37;3.60;;;1.30;;
43519;SDS011;46848;51.980;5.918;2023-02-28T05:42:03;3.90;;;1.10;;
43519;SDS011;46848;51.980;5.918;2023-02-28T05:44:29;3.10;;;1.33;;
43519;SDS011;46848;51.980;5.918;2023-02-28T05:46:55;2.60;;;1.10;;
43519;SDS011;46848;51.980;5.918;2023-02-28T05:49:21;3.50;;;1.20;;
43519;SDS011;46848;51.980;5.918;2023-02-28T05:51:47;3.00;;;1.23;;
43519;SDS011;46848;51.980;5.918;2023-02-28T05:54:12;3.17;;;1.57;;
43519;SDS011;46848;51.980;5.918;2023-02-28T05:56:38;4.23;;;1.20;;
43519;SDS011;46848;51.980;5.918;2023-02-28T05:59:05;2.13;;;0.90;;
43519;SDS011;46848;51.980;5.918;2023-02-28T06:01:36;2.50;;;0.83;;
43519;SDS011;46848;51.980;5.918;2023-02-28T06:06:30;3.70;;;1.00;;
43519;SDS011;46848;51.980;5.918;2023-02-28T06:08:56;3.10;;;1.23;;
43519;SDS011;46848;51.980;5.918;2023-02-28T06:11:22;2.80;;;1.17;;
43519;SDS011;46848;51.980;5.918;2023-02-28T06:13:53;2.47;;;1.13;;
43519;SDS011;46848;51.980;5.918;2023-02-28T06:16:20;2.33;;;1.03;;
43519;SDS011;46848;51.980;5.918;2023-02-28T06:18:46;4.47;;;1.10;;
43519;SDS011;46848;51.980;5.918;2023-02-28T06:21:12;2.13;;;1.17;;
43519;SDS011;46848;51.980;5.918;2023-02-28T06:23:38;5.33;;;1.10;;
43519;SDS011;46848;51.980;5.918;2023-02-28T06:26:04;3.57;;;1.10;;
43519;SDS011;46848;51.980;5.918;2023-02-28T06:28:30;2.00;;;1.00;;
43519;SDS011;46848;51.980;5.918;2023-02-28T06:30:56;2.70;;;1.10;;
43519;SDS011;46848;51.980;5.918;2023-02-28T06:33:21;2.97;;;1.20;;
43519;SDS011;46848;51.980;5.918;2023-02-28T06:35:49;3.77;;;1.03;;
43519;SDS011;46848;51.980;5.918;2023-02-28T06:38:16;2.20;;;0.80;;
43519;SDS011;46848;51.980;5.918;2023-02-28T06:40:43;3.63;;;0.93;;
43519;SDS011;46848;51.980;5.918;2023-02-28T06:43:09;3.40;;;0.90;;
43519;SDS011;46848;51.980;5.918;2023-02-28T06:45:40;4.43;;;1.00;;
43519;SDS011;46848;51.980;5.918;2023-02-28T06:48:07;2.17;;;1.03;;
43519;SDS011;46848;51.980;5.918;2023-02-28T06:50:33;2.80;;;0.87;;
43519;SDS011;46848;51.980;5.918;2023-02-28T06:52:59;2.47;;;1.00;;
43519;SDS011;46848;51.980;5.918;2023-02-28T06:55:24;6.50;;;1.40;;
43519;SDS011;46848;51.980;5.918;2023-02-28T06:57:50;3.50;;;1.27;;
43519;SDS011;46848;51.980;5.918;2023-02-28T07:00:16;2.70;;;1.13;;
43519;SDS011;46848;51.980;5.918;2023-02-28T07:02:41;1.97;;;0.90;;
43519;SDS011;46848;51.980;5.918;2023-02-28T07:05:07;2.50;;;1.10;;
43519;SDS011;46848;51.980;5.918;2023-02-28T07:07:33;2.43;;;1.03;;
43519;SDS011;46848;51.980;5.918;2023-02-28T07:10:01;4.17;;;1.17;;
43519;SDS011;46848;51.980;5.918;2023-02-28T07:12:27;4.57;;;1.87;;
43519;SDS011;46848;51.980;5.918;2023-02-28T07:14:52;3.00;;;1.30;;
43519;SDS011;46848;51.980;5.918;2023-02-28T07:17:19;3.77;;;1.17;;
43519;SDS011;46848;51.980;5.918;2023-02-28T07:19:45;5.00;;;1.57;;
43519;SDS011;46848;51.980;5.918;2023-02-28T07:22:10;2.63;;;1.20;;
43519;SDS011;46848;51.980;5.918;2023-02-28T07:24:36;3.30;;;1.70;;
43519;SDS011;46848;51.980;5.918;2023-02-28T07:27:03;4.60;;;1.40;;
43519;SDS011;46848;51.980;5.918;2023-02-28T07:29:28;3.43;;;1.30;;
43519;SDS011;46848;51.980;5.918;2023-02-28T07:31:54;4.27;;;2.07;;
43519;SDS011;46848;51.980;5.918;2023-02-28T07:34:21;4.57;;;1.60;;
43519;SDS011;46848;51.980;5.918;2023-02-28T07:36:47;3.43;;;1.70;;
43519;SDS011;46848;51.980;5.918;2023-02-28T07:39:13;5.70;;;1.63;;
43519;SDS011;46848;51.980;5.918;2023-02-28T07:41:38;6.30;;;1.47;;
43519;SDS011;46848;51.980;5.918;2023-02-28T07:44:09;4.20;;;1.43;;
43519;SDS011;46848;51.980;5.918;2023-02-28T07:46:38;3.47;;;1.70;;
43519;SDS011;46848;51.980;5.918;2023-02-28T07:49:04;3.73;;;1.57;;
43519;SDS011;46848;51.980;5.918;2023-02-28T07:51:30;5.77;;;1.73;;
43519;SDS011;46848;51.980;5.918;2023-02-28T07:53:56;5.40;;;1.80;;
43519;SDS011;46848;51.980;5.918;2023-02-28T07:56:22;7.27;;;2.17;;
43519;SDS011;46848;51.980;5.918;2023-02-28T07:58:48;3.97;;;1.77;;
43519;SDS011;46848;51.980;5.918;2023-02-28T08:01:14;4.07;;;1.80;;
43519;SDS011;46848;51.980;5.918;2023-02-28T08:03:39;3.97;;;1.60;;
43519;SDS011;46848;51.980;5.918;2023-02-28T08:06:06;4.27;;;1.80;;
43519;SDS011;46848;51.980;5.918;2023-02-28T08:08:33;6.23;;;1.93;;
43519;SDS011;46848;51.980;5.918;2023-02-28T08:10:59;6.80;;;2.43;;
43519;SDS011;46848;51.980;5.918;2023-02-28T08:13:26;6.40;;;1.70;;
43519;SDS011;46848;51.980;5.918;2023-02-28T08:15:53;5.07;;;1.97;;
43519;SDS011;46848;51.980;5.918;2023-02-28T08:18:19;4.20;;;1.80;;
43519;SDS011;46848;51.980;5.918;2023-02-28T08:20:46;4.90;;;1.73;;
43519;SDS011;46848;51.980;5.918;2023-02-28T08:23:11;6.73;;;1.77;;
43519;SDS011;46848;51.980;5.918;2023-02-28T08:25:37;2.53;;;1.27;;
43519;SDS011;46848;51.980;5.918;2023-02-28T08:28:02;5.43;;;1.30;;
43519;SDS011;46848;51.980;5.918;2023-02-28T08:30:28;4.33;;;1.27;;
43519;SDS011;46848;51.980;5.918;2023-02-28T08:32:54;3.13;;;1.40;;
43519;SDS011;46848;51.980;5.918;2023-02-28T08:35:20;3.10;;;1.03;;
43519;SDS011;46848;51.980;5.918;2023-02-28T08:37:49;2.87;;;1.30;;
43519;SDS011;46848;51.980;5.918;2023-02-28T08:40:15;2.80;;;1.30;;
43519;SDS011;46848;51.980;5.918;2023-02-28T08:42:46;3.63;;;1.37;;
43519;SDS011;46848;51.980;5.918;2023-02-28T08:45:13;2.20;;;1.10;;
43519;SDS011;46848;51.980;5.918;2023-02-28T08:47:39;3.28;;;1.33;;
43519;SDS011;46848;51.980;5.918;2023-02-28T08:50:06;3.13;;;1.35;;
43519;SDS011;46848;51.980;5.918;2023-02-28T08:52:32;2.92;;;1.48;;
43519;SDS011;46848;51.980;5.918;2023-02-28T08:54:58;3.70;;;1.25;;
43519;SDS011;46848;51.980;5.918;2023-02-28T08:57:24;4.95;;;1.33;;
43519;SDS011;46848;51.980;5.918;2023-02-28T08:59:51;3.17;;;1.33;;
43519;SDS011;46848;51.980;5.918;2023-02-28T09:02:17;4.40;;;1.38;;
43519;SDS011;46848;51.980;5.918;2023-02-28T09:04:43;2.63;;;1.35;;
43519;SDS011;46848;51.980;5.918;2023-02-28T09:07:12;1.98;;;1.10;;
43519;SDS011;46848;51.980;5.918;2023-02-28T09:09:38;2.20;;;1.20;;
43519;SDS011;46848;51.980;5.918;2023-02-28T09:12:18;2.67;;;1.30;;
43519;SDS011;46848;51.980;5.918;2023-02-28T09:14:47;2.72;;;1.10;;
43519;SDS011;46848;51.980;5.918;2023-02-28T09:17:13;2.13;;;1.13;;
43519;SDS011;46848;51.980;5.918;2023-02-28T09:19:39;3.25;;;1.17;;
43519;SDS011;46848;51.980;5.918;2023-02-28T09:22:04;2.78;;;1.15;;
43519;SDS011;46848;51.980;5.918;2023-02-28T09:24:30;2.35;;;1.00;;
43519;SDS011;46848;51.980;5.918;2023-02-28T09:26:56;1.42;;;0.88;;
43519;SDS011;46848;51.980;5.918;2023-02-28T09:29:22;2.72;;;1.23;;
43519;SDS011;46848;51.980;5.918;2023-02-28T09:31:48;2.53;;;1.10;;
43519;SDS011;46848;51.980;5.918;2023-02-28T09:34:14;2.28;;;1.10;;
43519;SDS011;46848;51.980;5.918;2023-02-28T09:36:40;3.13;;;1.25;;
43519;SDS011;46848;51.980;5.918;2023-02-28T09:39:06;3.50;;;1.00;;
43519;SDS011;46848;51.980;5.918;2023-02-28T09:41:36;2.97;;;1.20;;
43519;SDS011;46848;51.980;5.918;2023-02-28T09:44:12;12.38;;;2.25;;
43519;SDS011;46848;51.980;5.918;2023-02-28T09:46:48;4.70;;;1.30;;
43519;SDS011;46848;51.980;5.918;2023-02-28T09:49:22;3.17;;;1.35;;
43519;SDS011;46848;51.980;5.918;2023-02-28T09:51:52;2.15;;;1.08;;
43519;SDS011;46848;51.980;5.918;2023-02-28T09:54:31;2.30;;;1.20;;
43519;SDS011;46848;51.980;5.918;2023-02-28T16:45:02;3.47;;;1.90;;
43519;SDS011;46848;51.980;5.918;2023-02-28T16:47:27;4.67;;;2.13;;
43519;SDS011;46848;51.980;5.918;2023-02-28T16:49:53;4.60;;;2.00;;
43519;SDS011;46848;51.980;5.918;2023-02-28T16:52:18;5.33;;;2.47;;
43519;SDS011;46848;51.980;5.918;2023-02-28T16:54:47;5.57;;;2.23;;
43519;SDS011;46848;51.980;5.918;2023-02-28T16:57:18;5.33;;;2.00;;
43519;SDS011;46848;51.980;5.918;2023-02-28T16:59:48;4.03;;;1.50;;
43519;SDS011;46848;51.980;5.918;2023-02-28T17:02:16;4.23;;;1.80;;
43519;SDS011;46848;51.980;5.918;2023-02-28T17:04:47;3.90;;;1.73;;
43519;SDS011;46848;51.980;5.918;2023-02-28T17:07:13;3.07;;;1.40;;
43519;SDS011;46848;51.980;5.918;2023-02-28T17:09:41;4.87;;;1.90;;
43519;SDS011;46848;51.980;5.918;2023-02-28T17:12:08;4.03;;;1.70;;
43519;SDS011;46848;51.980;5.918;2023-02-28T17:14:34;3.83;;;1.77;;
43519;SDS011;46848;51.980;5.918;2023-02-28T17:17:01;6.57;;;2.03;;
43519;SDS011;46848;51.980;5.918;2023-02-28T17:19:27;3.97;;;1.97;;
43519;SDS011;46848;51.980;5.918;2023-02-28T17:21:53;3.50;;;1.70;;
43519;SDS011;46848;51.980;5.918;2023-02-28T17:24:18;3.23;;;1.60;;
43519;SDS011;46848;51.980;5.918;2023-02-28T17:26:45;3.80;;;1.70;;
43519;SDS011;46848;51.980;5.918;2023-02-28T17:29:29;3.17;;;1.70;;
43519;SDS011;46848;51.980;5.918;2023-02-28T17:31:59;2.97;;;1.63;;
43519;SDS011;46848;51.980;5.918;2023-02-28T17:34:25;4.10;;;1.63;;
43519;SDS011;46848;51.980;5.918;2023-02-28T17:36:51;3.33;;;1.60;;
43519;SDS011;46848;51.980;5.918;2023-02-28T17:39:17;3.70;;;1.77;;
43519;SDS011;46848;51.980;5.918;2023-02-28T17:41:49;4.60;;;1.88;;
43519;SDS011;46848;51.980;5.918;2023-02-28T17:44:18;4.03;;;1.60;;
43519;SDS011;46848;51.980;5.918;2023-02-28T17:46:45;3.70;;;1.67;;
43519;SDS011;46848;51.980;5.918;2023-02-28T17:49:11;3.50;;;1.40;;
43519;SDS011;46848;51.980;5.918;2023-02-28T17:51:38;5.47;;;1.70;;
43519;SDS011;46848;51.980;5.918;2023-02-28T17:54:06;2.63;;;1.37;;
43519;SDS011;46848;51.980;5.918;2023-02-28T17:56:31;4.30;;;1.70;;
43519;SDS011;46848;51.980;5.918;2023-02-28T17:58:57;3.03;;;1.63;;
43519;SDS011;46848;51.980;5.918;2023-02-28T18:01:23;4.03;;;1.60;;
43519;SDS011;46848;51.980;5.918;2023-02-28T18:03:52;4.23;;;2.00;;
43519;SDS011;46848;51.980;5.918;2023-02-28T18:06:20;2.77;;;1.30;;
43519;SDS011;46848;51.980;5.918;2023-02-28T18:08:49;3.23;;;2.07;;
43519;SDS011;46848;51.980;5.918;2023-02-28T18:11:19;2.73;;;1.60;;
43519;SDS011;46848;51.980;5.918;2023-02-28T18:13:50;3.07;;;1.43;;
43519;SDS011;46848;51.980;5.918;2023-02-28T18:16:17;3.10;;;1.40;;
43519;SDS011;46848;51.980;5.918;2023-02-28T18:18:44;4.37;;;1.90;;
43519;SDS011;46848;51.980;5.918;2023-02-28T18:21:11;4.93;;;1.90;;
43519;SDS011;46848;51.980;5.918;2023-02-28T18:23:39;5.50;;;2.23;;
43519;SDS011;46848;51.980;5.918;2023-02-28T18:26:11;4.23;;;2.00;;
43519;SDS011;46848;51.980;5.918;2023-02-28T18:28:41;3.73;;;2.00;;
43519;SDS011;46848;51.980;5.918;2023-02-28T18:31:08;5.90;;;2.60;;
43519;SDS011;46848;51.980;5.918;2023-02-28T18:33:36;3.40;;;2.00;;
43519;SDS011;46848;51.980;5.918;2023-02-28T18:36:02;5.00;;;1.97;;
43519;SDS011;46848;51.980;5.918;2023-02-28T18:38:27;6.93;;;2.10;;
43519;SDS011;46848;51.980;5.918;2023-02-28T18:41:00;4.20;;;2.07;;
43519;SDS011;46848;51.980;5.918;2023-02-28T18:43:28;5.40;;;2.53;;
43519;SDS011;46848;51.980;5.918;2023-02-28T18:45:56;5.00;;;2.43;;
43519;SDS011;46848;51.980;5.918;2023-02-28T18:48:22;5.40;;;2.30;;
43519;SDS011;46848;51.980;5.918;2023-02-28T18:50:48;4.77;;;2.30;;
43519;SDS011;46848;51.980;5.918;2023-02-28T18:53:15;4.33;;;2.20;;
43519;SDS011;46848;51.980;5.918;2023-02-28T18:55:41;3.90;;;1.93;;
43519;SDS011;46848;51.980;5.918;2023-02-28T18:58:06;4.67;;;2.70;;
43519;SDS011;46848;51.980;5.918;2023-02-28T19:00:32;5.30;;;2.63;;
43519;SDS011;46848;51.980;5.918;2023-02-28T19:02:58;5.20;;;2.60;;
43519;SDS011;46848;51.980;5.918;2023-02-28T19:05:24;6.23;;;2.70;;
43519;SDS011;46848;51.980;5.918;2023-02-28T19:07:49;6.27;;;2.60;;
43519;SDS011;46848;51.980;5.918;2023-02-28T19:10:15;5.77;;;2.80;;
43519;SDS011;46848;51.980;5.918;2023-02-28T19:12:41;5.10;;;2.77;;
43519;SDS011;46848;51.980;5.918;2023-02-28T19:15:07;5.20;;;2.73;;
43519;SDS011;46848;51.980;5.918;2023-02-28T19:17:34;5.47;;;2.67;;
43519;SDS011;46848;51.980;5.918;2023-02-28T19:20:00;5.47;;;2.60;;
43519;SDS011;46848;51.980;5.918;2023-02-28T19:22:28;6.10;;;2.80;;
43519;SDS011;46848;51.980;5.918;2023-02-28T19:24:53;4.63;;;2.20;;
43519;SDS011;46848;51.980;5.918;2023-02-28T19:27:19;3.90;;;2.27;;
43519;SDS011;46848;51.980;5.918;2023-02-28T19:29:48;5.43;;;2.43;;
43519;SDS011;46848;51.980;5.918;2023-02-28T19:32:21;5.50;;;2.40;;
43519;SDS011;46848;51.980;5.918;2023-02-28T19:34:47;5.20;;;2.78;;
43519;SDS011;46848;51.980;5.918;2023-02-28T19:37:12;5.53;;;2.83;;
43519;SDS011;46848;51.980;5.918;2023-02-28T19:39:38;7.00;;;2.60;;
43519;SDS011;46848;51.980;5.918;2023-02-28T19:42:11;5.03;;;2.40;;
43519;SDS011;46848;51.980;5.918;2023-02-28T19:44:39;4.82;;;2.70;;
43519;SDS011;46848;51.980;5.918;2023-02-28T19:47:06;4.40;;;2.40;;
43519;SDS011;46848;51.980;5.918;2023-02-28T19:49:33;4.83;;;2.77;;
43519;SDS011;46848;51.980;5.918;2023-02-28T19:51:59;4.90;;;2.70;;
43519;SDS011;46848;51.980;5.918;2023-02-28T19:54:25;5.43;;;3.10;;
43519;SDS011;46848;51.980;5.918;2023-02-28T19:56:52;4.97;;;2.47;;
43519;SDS011;46848;51.980;5.918;2023-02-28T19:59:23;5.30;;;2.60;;
43519;SDS011;46848;51.980;5.918;2023-02-28T20:01:49;6.20;;;3.30;;
43519;SDS011;46848;51.980;5.918;2023-02-28T20:04:14;5.37;;;2.50;;
43519;SDS011;46848;51.980;5.918;2023-02-28T20:06:40;5.40;;;2.60;;
43519;SDS011;46848;51.980;5.918;2023-02-28T20:09:06;6.47;;;3.03;;
43519;SDS011;46848;51.980;5.918;2023-02-28T20:11:31;5.57;;;3.20;;
43519;SDS011;46848;51.980;5.918;2023-02-28T20:14:02;4.23;;;2.70;;
43519;SDS011;46848;51.980;5.918;2023-02-28T20:16:29;5.57;;;3.57;;
43519;SDS011;46848;51.980;5.918;2023-02-28T20:18:55;6.37;;;3.47;;
43519;SDS011;46848;51.980;5.918;2023-02-28T20:21:21;5.73;;;3.20;;
43519;SDS011;46848;51.980;5.918;2023-02-28T20:23:47;5.53;;;3.00;;
43519;SDS011;46848;51.980;5.918;2023-02-28T20:26:13;7.63;;;3.60;;
43519;SDS011;46848;51.980;5.918;2023-02-28T20:28:39;6.37;;;3.53;;
43519;SDS011;46848;51.980;5.918;2023-02-28T20:31:10;6.90;;;3.37;;
43519;SDS011;46848;51.980;5.918;2023-02-28T20:33:47;6.27;;;3.37;;
43519;SDS011;46848;51.980;5.918;2023-02-28T20:36:15;7.13;;;3.40;;
43519;SDS011;46848;51.980;5.918;2023-02-28T20:38:43;6.33;;;3.13;;
43519;SDS011;46848;51.980;5.918;2023-02-28T20:41:09;6.03;;;2.97;;
43519;SDS011;46848;51.980;5.918;2023-02-28T20:43:35;5.57;;;2.90;;
43519;SDS011;46848;51.980;5.918;2023-02-28T20:46:01;5.43;;;2.80;;
43519;SDS011;46848;51.980;5.918;2023-02-28T20:48:27;6.67;;;3.37;;
43519;SDS011;46848;51.980;5.918;2023-02-28T20:50:54;7.67;;;3.53;;
43519;SDS011;46848;51.980;5.918;2023-02-28T20:53:21;6.17;;;3.10;;
43519;SDS011;46848;51.980;5.918;2023-02-28T20:55:58;10.50;;;3.40;;
43519;SDS011;46848;51.980;5.918;2023-02-28T20:58:26;7.33;;;3.57;;
43519;SDS011;46848;51.980;5.918;2023-02-28T21:01:00;4.53;;;2.40;;
43519;SDS011;46848;51.980;5.918;2023-02-28T21:03:27;5.13;;;2.80;;
43519;SDS011;46848;51.980;5.918;2023-02-28T21:05:58;6.50;;;3.13;;
43519;SDS011;46848;51.980;5.918;2023-02-28T21:08:25;7.15;;;3.58;;
43519;SDS011;46848;51.980;5.918;2023-02-28T21:10:50;9.60;;;3.47;;
43519;SDS011;46848;51.980;5.918;2023-02-28T21:13:16;6.40;;;3.17;;
43519;SDS011;46848;51.980;5.918;2023-02-28T21:15:42;5.80;;;3.30;;
43519;SDS011;46848;51.980;5.918;2023-02-28T21:18:07;4.83;;;2.90;;
43519;SDS011;46848;51.980;5.918;2023-02-28T21:20:33;5.47;;;2.83;;
43519;SDS011;46848;51.980;5.918;2023-02-28T21:23:00;7.73;;;3.50;;
43519;SDS011;46848;51.980;5.918;2023-02-28T21:25:26;6.97;;;3.63;;
43519;SDS011;46848;51.980;5.918;2023-02-28T21:27:51;5.43;;;2.80;;
43519;SDS011;46848;51.980;5.918;2023-02-28T21:30:21;6.57;;;3.20;;
43519;SDS011;46848;51.980;5.918;2023-02-28T21:32:47;4.90;;;2.93;;
43519;SDS011;46848;51.980;5.918;2023-02-28T21:35:12;4.87;;;2.80;;
43519;SDS011;46848;51.980;5.918;2023-02-28T21:37:39;5.83;;;2.90;;
43519;SDS011;46848;51.980;5.918;2023-02-28T21:40:05;5.40;;;3.03;;
43519;SDS011;46848;51.980;5.918;2023-02-28T21:42:32;4.83;;;2.80;;
43519;SDS011;46848;51.980;5.918;2023-02-28T21:44:58;5.43;;;2.67;;
43519;SDS011;46848;51.980;5.918;2023-02-28T21:47:24;4.50;;;2.70;;
43519;SDS011;46848;51.980;5.918;2023-02-28T21:49:54;5.17;;;2.77;;
43519;SDS011;46848;51.980;5.918;2023-02-28T21:52:19;5.80;;;3.43;;
43519;SDS011;46848;51.980;5.918;2023-02-28T21:54:46;5.73;;;3.20;;
43519;SDS011;46848;51.980;5.918;2023-02-28T21:57:12;4.90;;;2.97;;
43519;SDS011;46848;51.980;5.918;2023-02-28T21:59:40;5.00;;;2.70;;
43519;SDS011;46848;51.980;5.918;2023-02-28T22:02:09;5.17;;;2.90;;
43519;SDS011;46848;51.980;5.918;2023-02-28T22:04:36;5.13;;;2.77;;
43519;SDS011;46848;51.980;5.918;2023-02-28T22:07:02;7.23;;;3.30;;
43519;SDS011;46848;51.980;5.918;2023-02-28T22:09:29;4.57;;;2.60;;
43519;SDS011;46848;51.980;5.918;2023-02-28T22:11:55;4.50;;;3.03;;
43519;SDS011;46848;51.980;5.918;2023-02-28T22:14:21;6.60;;;2.87;;
43519;SDS011;46848;51.980;5.918;2023-02-28T22:16:47;6.33;;;3.10;;